createdAt,value
2019-03-15T00:00:35.269Z,6.24
2019-03-15T00:03:05.679Z,6.29
2019-03-15T00:05:38.910Z,6.31
2019-03-15T00:08:09.462Z,6.21
2019-03-15T00:10:40.055Z,6.12
2019-03-15T00:13:10.348Z,6.17
2019-03-15T00:15:40.608Z,6.17
2019-03-15T00:18:10.897Z,6.18
2019-03-15T00:20:41.603Z,6.27
2019-03-15T00:23:12.025Z,6.24
2019-03-15T00:25:43.563Z,6.25
2019-03-15T00:28:13.937Z,6.18
2019-03-15T00:30:44.157Z,6.15
2019-03-15T00:33:15.584Z,6.11
2019-03-15T00:35:46.067Z,6.02
2019-03-15T00:38:16.229Z,5.94
2019-03-15T00:40:47.093Z,5.96
2019-03-15T00:43:20.476Z,5.94
2019-03-15T00:45:51.893Z,6.07
2019-03-15T00:48:22.171Z,6.15
2019-03-15T00:50:52.669Z,6.15
2019-03-15T00:53:23.170Z,6.19
2019-03-15T00:55:53.675Z,6.20
2019-03-15T00:58:24.067Z,6.22
2019-03-15T01:00:54.669Z,6.25
2019-03-15T01:03:25.032Z,6.18
2019-03-15T01:05:55.409Z,6.23
2019-03-15T01:08:25.797Z,6.31
2019-03-15T01:10:56.189Z,6.33
2019-03-15T01:13:26.477Z,6.32
2019-03-15T01:15:57.127Z,6.31
2019-03-15T01:18:27.579Z,6.38
2019-03-15T01:20:59.550Z,6.29
2019-03-15T01:23:29.801Z,6.32
2019-03-15T01:26:00.282Z,6.34
2019-03-15T01:28:30.549Z,6.35
2019-03-15T01:31:01.451Z,6.42
2019-03-15T01:33:31.836Z,6.40
2019-03-15T01:36:04.376Z,6.37
2019-03-15T01:38:37.354Z,6.38
2019-03-15T01:41:08.285Z,6.38
2019-03-15T01:43:40.105Z,6.36
2019-03-15T01:46:10.934Z,6.36
2019-03-15T01:48:41.184Z,6.36
2019-03-15T01:51:11.603Z,6.33
2019-03-15T01:53:43.268Z,6.26
2019-03-15T01:56:13.790Z,6.14
2019-03-15T01:58:44.314Z,6.12
2019-03-15T02:01:14.930Z,6.02
2019-03-15T02:03:45.471Z,6.05
2019-03-15T02:06:15.810Z,5.95
2019-03-15T02:08:46.076Z,5.97
2019-03-15T02:11:16.248Z,5.89
2019-03-15T02:13:46.760Z,5.88
2019-03-15T02:16:17.368Z,5.85
2019-03-15T02:18:47.833Z,5.88
2019-03-15T02:21:18.585Z,5.84
2019-03-15T02:23:48.874Z,5.83
2019-03-15T02:26:19.314Z,5.84
2019-03-15T02:28:53.035Z,5.77
2019-03-15T02:31:23.971Z,5.77
2019-03-15T02:33:54.411Z,5.78
2019-03-15T02:36:24.727Z,5.77
2019-03-15T02:38:58.853Z,5.77
2019-03-15T02:41:30.390Z,5.72
2019-03-15T02:44:00.804Z,5.74
2019-03-15T02:46:31.106Z,5.69
2019-03-15T02:49:02.048Z,5.71
2019-03-15T02:51:32.756Z,5.70
2019-03-15T02:54:03.245Z,5.69
2019-03-15T02:56:34.540Z,5.74
2019-03-15T02:59:04.982Z,5.74
2019-03-15T03:01:38.987Z,5.83
2019-03-15T03:04:09.387Z,5.81
2019-03-15T03:06:39.696Z,5.91
2019-03-15T03:09:10.275Z,6.00
2019-03-15T03:11:40.571Z,6.13
2019-03-15T03:14:10.982Z,6.20
2019-03-15T03:16:44.201Z,6.15
2019-03-15T03:19:14.535Z,6.10
2019-03-15T03:21:47.014Z,6.10
2019-03-15T03:24:17.351Z,6.04
2019-03-15T03:26:47.760Z,6.10
2019-03-15T03:29:20.405Z,6.15
2019-03-15T03:31:50.740Z,6.18
2019-03-15T03:34:20.914Z,6.21
2019-03-15T03:36:52.313Z,6.24
2019-03-15T03:39:22.838Z,6.27
2019-03-15T03:41:55.035Z,6.27
2019-03-15T03:44:26.170Z,6.28
2019-03-15T03:46:59.366Z,6.34
2019-03-15T03:49:29.644Z,6.37
2019-03-15T03:52:00.005Z,6.39
2019-03-15T03:54:30.677Z,6.43
2019-03-15T03:57:01.656Z,6.42
2019-03-15T03:59:36.178Z,6.37
2019-03-15T04:02:06.484Z,6.40
2019-03-15T04:04:37.204Z,6.44
2019-03-15T04:07:08.564Z,6.42
2019-03-15T04:09:38.889Z,6.46
2019-03-15T04:12:09.399Z,6.45
2019-03-15T04:14:44.730Z,6.48
2019-03-15T04:17:16.003Z,6.49
2019-03-15T04:19:46.413Z,6.45
2019-03-15T04:22:16.888Z,6.51
2019-03-15T04:24:53.398Z,6.41
2019-03-15T04:27:25.337Z,6.37
2019-03-15T04:29:57.810Z,6.41
2019-03-15T04:32:31.002Z,6.45
2019-03-15T04:35:01.333Z,6.42
2019-03-15T04:37:32.925Z,6.40
2019-03-15T04:40:06.029Z,6.43
2019-03-15T04:42:40.498Z,6.41
2019-03-15T04:45:12.787Z,6.41
2019-03-15T04:47:44.802Z,6.42
2019-03-15T04:50:15.281Z,6.43
2019-03-15T04:52:45.561Z,6.38
2019-03-15T04:55:35.960Z,6.39
2019-03-15T05:03:45.903Z,6.25
2019-03-15T05:06:16.349Z,6.27
2019-03-15T05:08:46.589Z,6.36
2019-03-15T05:11:19.053Z,6.37
2019-03-15T05:13:51.868Z,6.40
2019-03-15T05:16:22.261Z,6.38
2019-03-15T05:18:52.639Z,6.28
2019-03-15T05:21:22.967Z,6.37
2019-03-15T05:23:53.220Z,6.36
2019-03-15T05:26:23.513Z,6.37
2019-03-15T05:28:54.391Z,6.41
2019-03-15T05:31:24.936Z,6.37
2019-03-15T05:33:55.587Z,6.33
2019-03-15T05:36:29.005Z,6.32
2019-03-15T05:38:59.323Z,6.32
2019-03-15T05:41:29.815Z,6.28
2019-03-15T05:44:00.240Z,6.22
2019-03-15T05:46:31.111Z,6.15
2019-03-15T05:49:05.868Z,6.22
2019-03-15T05:51:36.884Z,6.25
2019-03-15T05:54:09.692Z,6.33
2019-03-15T05:56:39.960Z,6.32
2019-03-15T05:59:10.286Z,6.36
2019-03-15T06:01:41.351Z,6.37
2019-03-15T06:04:11.692Z,6.38
2019-03-15T06:06:42.143Z,6.38
2019-03-15T06:09:12.648Z,6.44
2019-03-15T06:11:42.986Z,6.46
2019-03-15T06:14:13.818Z,6.52
2019-03-15T06:16:44.240Z,6.56
2019-03-15T06:19:14.569Z,6.66
2019-03-15T06:21:44.908Z,6.67
2019-03-15T06:24:15.327Z,6.69
2019-03-15T06:26:45.905Z,6.67
2019-03-15T06:29:16.730Z,6.76
2019-03-15T06:31:51.218Z,6.66
2019-03-15T06:34:21.663Z,6.71
2019-03-15T06:36:52.107Z,6.76
2019-03-15T06:39:22.402Z,6.73
2019-03-15T06:41:53.694Z,6.73
2019-03-15T06:44:24.154Z,6.66
2019-03-15T06:46:54.853Z,6.71
2019-03-15T06:49:25.401Z,6.74
2019-03-15T06:51:57.502Z,6.75
2019-03-15T06:54:27.810Z,6.80
2019-03-15T06:56:58.235Z,6.86
2019-03-15T06:59:30.996Z,7.03
2019-03-15T07:02:01.407Z,7.06
2019-03-15T07:04:31.805Z,7.12
2019-03-15T07:07:03.150Z,7.22
2019-03-15T07:09:33.471Z,7.18
2019-03-15T07:12:09.476Z,7.23
2019-03-15T07:14:36.142Z,7.31
2019-03-15T07:17:06.832Z,7.36
2019-03-15T07:19:37.443Z,7.47
2019-03-15T07:22:08.253Z,7.50
2019-03-15T07:24:38.516Z,7.55
2019-03-15T07:27:13.160Z,7.73
2019-03-15T07:29:40.897Z,7.80
2019-03-15T07:32:11.091Z,7.92
2019-03-15T07:34:41.618Z,8.08
2019-03-15T07:37:12.025Z,8.13
2019-03-15T07:39:42.816Z,8.12
2019-03-15T07:42:13.206Z,8.20
2019-03-15T07:44:45.374Z,8.21
2019-03-15T07:47:18.089Z,8.09
2019-03-15T07:49:48.636Z,8.11
2019-03-15T07:52:18.910Z,8.13
2019-03-15T07:54:49.189Z,8.24
2019-03-15T07:57:19.576Z,8.26
2019-03-15T07:59:49.995Z,8.41
2019-03-15T08:02:20.460Z,8.29
2019-03-15T08:04:50.709Z,8.34
2019-03-15T08:07:35.357Z,8.30
2019-03-15T08:09:53.212Z,8.29
2019-03-15T08:12:26.198Z,8.41
2019-03-15T08:14:56.429Z,8.58
2019-03-15T08:17:27.852Z,8.66
2019-03-15T08:19:58.106Z,8.66
2019-03-15T08:22:29.423Z,8.62
2019-03-15T08:24:59.780Z,8.67
2019-03-15T08:27:30.168Z,8.65
2019-03-15T08:30:01.409Z,8.76
2019-03-15T08:32:34.865Z,8.85
2019-03-15T08:35:05.740Z,8.81
2019-03-15T08:37:36.002Z,8.79
2019-03-15T08:40:07.019Z,8.70
2019-03-15T08:42:37.357Z,8.71
2019-03-15T08:45:20.894Z,8.65
2019-03-15T08:47:51.213Z,8.59
2019-03-15T08:50:24.365Z,8.69
2019-03-15T08:52:54.419Z,8.60
2019-03-15T08:55:25.488Z,8.74
2019-03-15T08:57:55.925Z,8.72
2019-03-15T09:00:28.418Z,8.80
2019-03-15T09:02:58.649Z,8.57
2019-03-15T09:05:29.189Z,8.55
2019-03-15T09:08:01.461Z,8.49
2019-03-15T09:10:31.795Z,8.69
2019-03-15T09:13:04.036Z,8.89
2019-03-15T09:15:34.312Z,8.78
2019-03-15T09:18:04.700Z,8.74
2019-03-15T09:20:34.993Z,8.64
2019-03-15T09:23:05.562Z,8.65
2019-03-15T09:25:43.295Z,8.50
2019-03-15T09:28:20.341Z,8.54
2019-03-15T09:30:54.929Z,8.55
2019-03-15T09:33:26.250Z,8.71
2019-03-15T09:36:00.245Z,8.69
2019-03-15T09:38:31.610Z,8.68
2019-03-15T09:41:02.031Z,8.58
2019-03-15T09:43:32.783Z,8.44
2019-03-15T09:46:07.611Z,8.14
2019-03-15T09:48:39.161Z,8.31
2019-03-15T09:51:09.663Z,8.57
2019-03-15T09:53:40.465Z,8.62
2019-03-15T09:56:10.669Z,8.70
2019-03-15T09:58:40.976Z,8.66
2019-03-15T10:01:11.555Z,8.62
2019-03-15T10:03:42.109Z,8.51
2019-03-15T10:06:16.536Z,8.41
2019-03-15T10:08:45.264Z,8.55
2019-03-15T10:11:19.273Z,8.64
2019-03-15T10:13:50.594Z,8.63
2019-03-15T10:16:21.060Z,8.70
2019-03-15T10:18:54.867Z,8.77
2019-03-15T10:21:25.374Z,8.83
2019-03-15T10:23:58.583Z,8.70
2019-03-15T10:26:32.134Z,8.73
2019-03-15T10:29:14.801Z,8.75
2019-03-15T10:31:35.914Z,8.70
2019-03-15T10:34:06.853Z,8.63
2019-03-15T10:36:37.842Z,8.59
2019-03-15T10:39:08.616Z,8.66
2019-03-15T10:41:39.429Z,8.74
2019-03-15T10:44:10.438Z,8.61
2019-03-15T10:46:41.181Z,8.38
2019-03-15T10:49:16.094Z,8.49
2019-03-15T10:51:46.496Z,8.37
2019-03-15T10:54:17.854Z,8.44
2019-03-15T10:56:49.639Z,8.46
2019-03-15T10:59:19.924Z,8.47
2019-03-15T11:01:51.342Z,8.48
2019-03-15T11:04:22.206Z,8.61
2019-03-15T11:06:52.484Z,8.66
2019-03-15T11:09:23.911Z,8.76
2019-03-15T11:11:54.267Z,8.72
2019-03-15T11:14:24.468Z,8.64
2019-03-15T11:16:54.672Z,8.59
2019-03-15T11:19:25.060Z,8.69
2019-03-15T11:21:55.242Z,8.48
2019-03-15T11:24:25.540Z,8.65
2019-03-15T11:26:57.251Z,8.77
2019-03-15T11:29:27.569Z,8.75
2019-03-15T11:31:57.931Z,8.76
2019-03-15T11:34:28.724Z,8.82
2019-03-15T11:36:59.097Z,8.69
2019-03-15T11:39:29.422Z,8.73
2019-03-15T11:41:59.740Z,8.80
2019-03-15T11:44:30.007Z,8.61
2019-03-15T11:47:00.615Z,8.45
2019-03-15T11:49:30.896Z,8.41
2019-03-15T11:52:01.261Z,8.45
2019-03-15T11:54:32.438Z,8.47
2019-03-15T11:57:13.837Z,8.47
2019-03-15T11:59:44.545Z,8.62
2019-03-15T12:02:21.965Z,8.66
2019-03-15T12:04:53.443Z,8.69
2019-03-15T12:07:25.948Z,8.73
2019-03-15T12:10:00.875Z,8.63
2019-03-15T12:12:33.018Z,8.69
2019-03-15T12:15:07.039Z,8.78
2019-03-15T12:17:40.623Z,8.82
2019-03-15T12:20:15.359Z,8.65
2019-03-15T12:22:51.286Z,8.61
2019-03-15T12:25:31.294Z,8.60
2019-03-15T12:28:03.949Z,8.62
2019-03-15T12:30:34.840Z,8.64
2019-03-15T12:33:11.291Z,8.63
2019-03-15T12:35:41.743Z,8.66
2019-03-15T12:38:17.918Z,8.75
2019-03-15T12:41:04.816Z,8.84
2019-03-15T12:43:36.201Z,9.03
2019-03-15T12:46:08.729Z,9.13
2019-03-15T12:48:39.891Z,9.37
2019-03-15T12:51:10.591Z,9.73
2019-03-15T12:53:42.925Z,10.09
2019-03-15T12:56:14.841Z,10.38
2019-03-15T12:58:45.418Z,10.52
2019-03-15T13:01:29.967Z,10.88
2019-03-15T13:04:01.895Z,11.01
2019-03-15T13:06:33.985Z,10.83
2019-03-15T13:09:08.791Z,10.78
2019-03-15T13:11:42.917Z,10.83
2019-03-15T13:14:14.103Z,10.89
2019-03-15T13:16:54.043Z,10.87
2019-03-15T13:19:27.837Z,10.92
2019-03-15T13:22:01.499Z,10.99
2019-03-15T13:24:38.705Z,10.93
2019-03-15T13:27:10.772Z,10.82
2019-03-15T13:29:44.773Z,11.00
2019-03-15T13:32:15.939Z,11.32
2019-03-15T13:34:48.138Z,11.47
2019-03-15T13:37:25.433Z,11.58
2019-03-15T13:39:56.239Z,11.74
2019-03-15T13:42:29.326Z,11.74
2019-03-15T13:45:03.340Z,11.79
2019-03-15T13:47:36.315Z,11.75
2019-03-15T13:50:08.486Z,11.57
2019-03-15T13:52:41.341Z,11.21
2019-03-15T13:55:12.145Z,11.11
2019-03-15T13:57:42.554Z,11.21
2019-03-15T14:00:15.385Z,11.25
2019-03-15T14:02:45.866Z,11.29
2019-03-15T14:05:16.292Z,11.31
2019-03-15T14:07:46.791Z,11.32
2019-03-15T14:10:17.418Z,11.42
2019-03-15T14:12:50.176Z,11.59
2019-03-15T14:15:24.133Z,11.78
2019-03-15T14:17:57.803Z,11.90
2019-03-15T14:20:28.233Z,11.95
2019-03-15T14:23:02.666Z,12.00
2019-03-15T14:25:34.239Z,12.04
2019-03-15T14:28:13.230Z,12.06
2019-03-15T14:30:43.489Z,12.14
2019-03-15T14:33:13.970Z,12.18
2019-03-15T14:35:47.560Z,12.17
2019-03-15T14:38:19.946Z,12.14
2019-03-15T14:40:53.649Z,12.15
2019-03-15T14:43:31.093Z,12.14
2019-03-15T14:46:01.912Z,12.08
2019-03-15T14:48:37.887Z,12.11
2019-03-15T14:51:11.668Z,12.22
2019-03-15T14:53:42.633Z,12.35
2019-03-15T14:56:18.072Z,12.32
2019-03-15T14:58:57.111Z,12.24
2019-03-15T15:01:29.209Z,12.23
2019-03-15T15:04:00.434Z,12.23
2019-03-15T15:06:31.441Z,12.19
2019-03-15T15:09:02.618Z,12.14
2019-03-15T15:11:34.408Z,12.00
2019-03-15T15:14:05.470Z,11.93
2019-03-15T15:16:36.261Z,11.87
2019-03-15T15:19:07.255Z,11.81
2019-03-15T15:21:37.710Z,11.83
2019-03-15T15:24:12.219Z,11.80
2019-03-15T15:26:44.280Z,11.79
2019-03-15T15:29:17.753Z,11.72
2019-03-15T15:31:48.425Z,11.68
2019-03-15T15:34:18.763Z,11.75
2019-03-15T15:36:49.613Z,11.76
2019-03-15T15:39:19.897Z,11.82
2019-03-15T15:41:53.353Z,11.79
2019-03-15T15:44:27.130Z,11.67
2019-03-15T15:47:02.173Z,11.68
2019-03-15T15:49:32.825Z,11.59
2019-03-15T15:52:06.040Z,11.65
2019-03-15T15:54:36.278Z,11.55
2019-03-15T15:57:07.041Z,11.56
2019-03-15T15:59:37.525Z,11.48
2019-03-15T16:02:13.117Z,11.39
2019-03-15T16:04:46.917Z,11.43
2019-03-15T16:07:17.446Z,11.41
2019-03-15T16:09:47.923Z,11.34
2019-03-15T16:12:18.194Z,11.33
2019-03-15T16:14:51.452Z,11.36
2019-03-15T16:17:25.168Z,11.28
2019-03-15T16:20:07.123Z,11.22
2019-03-15T16:22:37.793Z,11.17
2019-03-15T16:25:08.115Z,11.15
2019-03-15T16:27:38.727Z,11.12
2019-03-15T16:30:15.996Z,11.10
2019-03-15T16:32:46.545Z,11.13
2019-03-15T16:35:17.265Z,11.04
2019-03-15T16:37:48.663Z,11.07
2019-03-15T16:40:19.303Z,10.94
2019-03-15T16:42:52.641Z,10.91
2019-03-15T16:45:23.222Z,10.86
2019-03-15T16:47:53.971Z,10.83
2019-03-15T16:50:24.518Z,10.80
2019-03-15T16:52:54.961Z,10.79
2019-03-15T16:55:25.531Z,10.69
2019-03-15T16:57:56.149Z,10.65
2019-03-15T17:00:26.617Z,10.58
2019-03-15T17:02:58.589Z,10.56
2019-03-15T17:05:28.832Z,10.50
2019-03-15T17:07:59.485Z,10.48
2019-03-15T17:10:31.619Z,10.43
2019-03-15T17:13:02.180Z,10.35
2019-03-15T17:15:32.599Z,10.30
2019-03-15T17:18:03.145Z,10.31
2019-03-15T17:20:33.531Z,10.21
2019-03-15T17:23:03.955Z,10.17
2019-03-15T17:25:34.191Z,10.11
2019-03-15T17:28:04.419Z,10.01
2019-03-15T17:30:35.686Z,9.96
2019-03-15T17:33:06.406Z,9.92
2019-03-15T17:35:38.042Z,9.90
2019-03-15T17:38:11.222Z,9.87
2019-03-15T17:40:44.751Z,9.77
2019-03-15T17:43:19.577Z,9.66
2019-03-15T17:45:49.838Z,9.65
2019-03-15T17:48:20.990Z,9.57
2019-03-15T17:50:51.711Z,9.52
2019-03-15T17:53:24.419Z,9.44
2019-03-15T17:55:57.925Z,9.38
2019-03-15T17:58:31.862Z,9.31
2019-03-15T18:01:02.160Z,9.26
2019-03-15T18:03:32.718Z,9.21
2019-03-15T18:06:02.925Z,9.15
2019-03-15T18:08:36.152Z,9.10
2019-03-15T18:11:06.591Z,9.08
2019-03-15T18:13:40.440Z,9.01
2019-03-15T18:16:10.693Z,8.92
2019-03-15T18:18:40.965Z,8.98
2019-03-15T18:21:12.134Z,8.89
2019-03-15T18:23:42.562Z,8.89
2019-03-15T18:26:15.445Z,8.89
2019-03-15T18:28:48.505Z,8.87
2019-03-15T18:31:18.658Z,8.84
2019-03-15T18:33:48.849Z,8.78
2019-03-15T18:36:19.217Z,8.77
2019-03-15T18:38:53.397Z,8.79
2019-03-15T18:41:23.728Z,8.73
2019-03-15T18:43:55.497Z,8.70
2019-03-15T18:46:25.744Z,8.64
2019-03-15T18:48:55.980Z,8.62
2019-03-15T18:51:26.348Z,8.59
2019-03-15T18:53:58.572Z,8.51
2019-03-15T18:56:29.415Z,8.51
2019-03-15T18:58:59.729Z,8.46
2019-03-15T19:01:29.964Z,8.45
2019-03-15T19:04:00.467Z,8.42
2019-03-15T19:06:30.669Z,8.40
2019-03-15T19:09:01.667Z,8.43
2019-03-15T19:11:33.601Z,8.46
2019-03-15T19:14:04.151Z,8.45
2019-03-15T19:16:34.950Z,8.45
2019-03-15T19:19:05.229Z,8.40
2019-03-15T19:21:35.554Z,8.38
2019-03-15T19:24:05.721Z,8.32
2019-03-15T19:26:35.863Z,8.27
2019-03-15T19:29:06.176Z,8.25
2019-03-15T19:31:36.501Z,8.21
2019-03-15T19:34:07.931Z,8.17
2019-03-15T19:36:39.385Z,8.13
2019-03-15T19:39:09.928Z,8.06
2019-03-15T19:41:43.238Z,8.04
2019-03-15T19:44:16.667Z,7.97
2019-03-15T19:46:47.117Z,7.97
2019-03-15T19:49:17.451Z,7.99
2019-03-15T19:51:47.970Z,8.01
2019-03-15T19:54:19.374Z,8.01
2019-03-15T19:56:49.559Z,8.05
2019-03-15T19:59:19.950Z,7.95
2019-03-15T20:01:50.253Z,7.93
2019-03-15T20:04:20.474Z,7.88
2019-03-15T20:06:52.873Z,7.85
2019-03-15T20:09:23.190Z,7.82
2019-03-15T20:11:53.322Z,7.81
2019-03-15T20:14:23.486Z,7.72
2019-03-15T20:16:53.755Z,7.76
2019-03-15T20:19:24.053Z,7.75
2019-03-15T20:22:02.919Z,7.71
2019-03-15T20:24:36.696Z,7.70
2019-03-15T20:27:06.333Z,7.60
2019-03-15T20:29:37.573Z,7.61
2019-03-15T20:32:08.355Z,7.54
2019-03-15T20:34:40.424Z,7.56
2019-03-15T20:37:12.345Z,7.55
2019-03-15T20:39:42.574Z,7.49
2019-03-15T20:42:12.772Z,7.46
2019-03-15T20:44:43.721Z,7.44
2019-03-15T20:47:15.610Z,7.40
2019-03-15T20:49:49.470Z,7.41
2019-03-15T20:52:21.428Z,7.37
2019-03-15T20:54:51.878Z,7.37
2019-03-15T20:57:22.232Z,7.37
2019-03-15T20:59:52.559Z,7.33
2019-03-15T21:02:25.452Z,7.28
2019-03-15T21:04:55.878Z,7.27
2019-03-15T21:07:26.039Z,7.25
2019-03-15T21:09:56.341Z,7.25
2019-03-15T21:12:26.460Z,7.17
2019-03-15T21:14:56.657Z,7.12
2019-03-15T21:17:26.935Z,7.12
2019-03-15T21:20:01.570Z,7.13
2019-03-15T21:22:30.424Z,7.09
2019-03-15T21:25:00.650Z,7.12
2019-03-15T21:27:30.970Z,7.06
2019-03-15T21:30:01.208Z,7.06
2019-03-15T21:32:31.587Z,7.12
2019-03-15T21:35:03.549Z,7.08
2019-03-15T21:37:34.834Z,7.06
2019-03-15T21:40:05.159Z,7.14
2019-03-15T21:42:39.146Z,7.08
2019-03-15T21:45:10.368Z,7.12
2019-03-15T21:47:40.585Z,7.16
2019-03-15T21:50:12.447Z,7.20
2019-03-15T21:52:42.640Z,7.18
2019-03-15T21:55:12.914Z,7.15
2019-03-15T21:57:43.110Z,7.15
2019-03-15T22:00:14.230Z,7.24
2019-03-15T22:02:48.845Z,7.29
2019-03-15T22:05:19.881Z,7.26
2019-03-15T22:07:49.990Z,7.20
2019-03-15T22:10:20.169Z,7.26
2019-03-15T22:12:51.719Z,7.25
2019-03-15T22:15:24.416Z,7.25
2019-03-15T22:17:54.597Z,7.19
2019-03-15T22:20:29.222Z,7.12
2019-03-15T22:22:59.305Z,7.06
2019-03-15T22:25:30.188Z,7.06
2019-03-15T22:28:01.076Z,7.03
2019-03-15T22:30:34.003Z,6.99
2019-03-15T22:33:04.284Z,7.01
2019-03-15T22:35:36.633Z,7.04
2019-03-15T22:38:07.237Z,6.97
2019-03-15T22:40:37.609Z,6.99
2019-03-15T22:43:07.985Z,6.92
2019-03-15T22:45:38.135Z,6.95
2019-03-15T22:48:08.278Z,7.05
2019-03-15T22:50:41.939Z,7.05
2019-03-15T22:53:12.077Z,7.01
2019-03-15T22:55:42.432Z,7.06
2019-03-15T22:58:12.674Z,7.05
2019-03-15T23:00:43.333Z,7.06
2019-03-15T23:03:15.252Z,7.09
2019-03-15T23:05:47.787Z,7.13
2019-03-15T23:08:17.692Z,7.10
2019-03-15T23:10:50.374Z,7.12
2019-03-15T23:13:20.607Z,7.14
2019-03-15T23:15:50.784Z,7.12
2019-03-15T23:18:20.988Z,7.16
2019-03-15T23:20:52.086Z,7.17
2019-03-15T23:23:24.403Z,7.08
2019-03-15T23:25:54.577Z,7.07
2019-03-15T23:28:24.898Z,6.98
2019-03-15T23:30:55.187Z,6.96
2019-03-15T23:33:25.476Z,6.93
2019-03-15T23:35:58.565Z,6.90
2019-03-15T23:38:29.152Z,6.84
2019-03-15T23:40:59.685Z,6.86
2019-03-15T23:43:30.067Z,6.81
2019-03-15T23:46:00.471Z,6.72
2019-03-15T23:48:30.756Z,6.69
2019-03-15T23:51:01.248Z,6.71
2019-03-15T23:53:31.556Z,6.65
2019-03-15T23:56:02.025Z,6.61
2019-03-15T23:58:32.310Z,6.66
